createdAt,value
2022-10-30T00:01:52.491Z,88.64
2022-10-30T00:04:15.505Z,88.52
2022-10-30T00:06:37.959Z,88.59
2022-10-30T00:09:00.637Z,88.65
2022-10-30T00:11:23.463Z,88.40
2022-10-30T00:13:46.147Z,88.42
2022-10-30T00:16:09.812Z,88.48
2022-10-30T00:18:32.718Z,88.74
2022-10-30T00:20:55.376Z,88.66
2022-10-30T00:23:18.296Z,88.78
2022-10-30T00:25:40.942Z,88.84
2022-10-30T00:28:06.508Z,88.72
2022-10-30T00:30:29.123Z,88.66
2022-10-30T00:32:51.739Z,88.86
2022-10-30T00:35:14.335Z,88.86
2022-10-30T00:37:36.945Z,88.67
2022-10-30T00:39:59.434Z,88.58
2022-10-30T00:42:21.992Z,88.51
2022-10-30T00:44:44.575Z,88.25
2022-10-30T00:47:18.241Z,88.47
2022-10-30T00:49:53.293Z,88.38
2022-10-30T00:52:15.787Z,88.30
2022-10-30T00:54:38.338Z,88.48
2022-10-30T00:57:04.371Z,88.49
2022-10-30T00:59:32.843Z,88.25
2022-10-30T01:01:55.825Z,88.20
2022-10-30T01:04:19.299Z,89.10
2022-10-30T01:06:44.907Z,88.91
2022-10-30T01:09:07.611Z,89.07
2022-10-30T01:11:31.436Z,89.17
2022-10-30T01:13:57.428Z,89.28
2022-10-30T01:16:54.027Z,89.09
2022-10-30T01:19:39.744Z,88.61
2022-10-30T01:22:24.147Z,88.55
2022-10-30T01:25:10.380Z,89.08
2022-10-30T01:28:03.729Z,89.11
2022-10-30T01:30:26.322Z,88.99
2022-10-30T01:33:02.955Z,88.96
2022-10-30T01:35:44.286Z,88.84
2022-10-30T01:38:26.273Z,88.95
2022-10-30T01:40:50.267Z,88.93
2022-10-30T01:43:12.874Z,88.83
2022-10-30T01:45:59.092Z,88.67
2022-10-30T01:48:46.517Z,89.18
2022-10-30T01:51:09.080Z,88.91
2022-10-30T01:54:00.182Z,89.29
2022-10-30T01:56:38.124Z,88.97
2022-10-30T01:59:15.509Z,88.95
2022-10-30T02:01:39.991Z,89.28
2022-10-30T02:06:31.302Z,89.19
2022-10-30T02:08:57.206Z,88.93
2022-10-30T02:11:19.967Z,88.98
2022-10-30T02:13:42.734Z,89.13
2022-10-30T02:16:06.070Z,88.80
2022-10-30T02:18:30.440Z,89.06
2022-10-30T02:20:53.952Z,89.08
2022-10-30T02:23:18.988Z,88.83
2022-10-30T02:25:41.590Z,89.01
2022-10-30T02:28:05.634Z,89.25
2022-10-30T02:30:28.715Z,88.98
2022-10-30T02:32:51.380Z,88.98
2022-10-30T02:35:13.970Z,89.12
2022-10-30T02:37:36.807Z,89.11
2022-10-30T02:39:59.578Z,89.06
2022-10-30T02:42:23.204Z,89.14
2022-10-30T02:44:47.897Z,88.84
2022-10-30T02:47:10.799Z,89.11
2022-10-30T02:49:33.451Z,89.20
2022-10-30T02:51:56.958Z,89.07
2022-10-30T02:54:19.498Z,89.14
2022-10-30T02:56:41.966Z,89.01
2022-10-30T02:59:04.574Z,89.32
2022-10-30T03:01:27.533Z,90.08
2022-10-30T03:03:52.762Z,89.84
2022-10-30T03:06:17.454Z,89.90
2022-10-30T03:08:40.237Z,89.60
2022-10-30T03:11:05.926Z,89.57
2022-10-30T03:13:30.298Z,89.34
2022-10-30T03:15:53.151Z,89.34
2022-10-30T03:18:15.956Z,89.29
2022-10-30T03:20:39.385Z,89.52
2022-10-30T03:23:02.156Z,89.75
2022-10-30T03:25:24.671Z,89.65
2022-10-30T03:27:50.557Z,89.77
2022-10-30T03:30:13.213Z,89.97
2022-10-30T03:32:36.175Z,90.02
2022-10-30T03:34:59.177Z,90.02
2022-10-30T03:37:21.830Z,90.04
2022-10-30T03:39:44.359Z,90.10
2022-10-30T03:42:06.906Z,89.82
2022-10-30T03:44:29.406Z,89.91
2022-10-30T03:46:52.417Z,90.04
2022-10-30T03:49:28.677Z,89.84
2022-10-30T03:51:52.376Z,89.87
2022-10-30T03:54:14.878Z,89.70
2022-10-30T03:56:37.435Z,89.95
2022-10-30T03:59:00.552Z,89.75
2022-10-30T04:01:24.077Z,90.12
2022-10-30T04:03:51.603Z,89.89
2022-10-30T04:06:14.290Z,89.81
2022-10-30T04:08:36.844Z,89.81
2022-10-30T04:11:00.028Z,89.70
2022-10-30T04:13:22.696Z,89.61
2022-10-30T04:15:56.057Z,89.42
2022-10-30T04:18:41.535Z,89.55
2022-10-30T04:21:25.213Z,89.76
2022-10-30T04:23:49.313Z,89.70
2022-10-30T04:26:13.755Z,89.96
2022-10-30T04:28:36.309Z,89.59
2022-10-30T04:30:59.790Z,89.70
2022-10-30T04:33:22.231Z,89.73
2022-10-30T04:35:45.763Z,89.84
2022-10-30T04:38:14.655Z,90.06
2022-10-30T04:40:40.800Z,89.98
2022-10-30T04:43:04.866Z,90.10
2022-10-30T04:45:27.430Z,90.20
2022-10-30T04:47:51.695Z,90.22
2022-10-30T04:50:15.159Z,90.73
2022-10-30T04:52:38.943Z,90.64
2022-10-30T04:55:01.880Z,90.58
2022-10-30T04:57:24.479Z,90.48
2022-10-30T04:59:47.808Z,90.46
2022-10-30T05:02:10.818Z,90.34
2022-10-30T05:04:33.535Z,90.38
2022-10-30T05:06:57.610Z,90.15
2022-10-30T05:09:20.195Z,90.11
2022-10-30T05:11:42.729Z,90.32
2022-10-30T05:14:05.172Z,90.22
2022-10-30T05:16:27.915Z,89.68
2022-10-30T05:18:51.719Z,89.44
2022-10-30T05:21:14.479Z,89.45
2022-10-30T05:23:37.084Z,89.25
2022-10-30T05:26:01.724Z,89.10
2022-10-30T05:28:25.486Z,89.33
2022-10-30T05:30:53.722Z,88.69
2022-10-30T05:33:35.344Z,89.36
2022-10-30T05:35:57.884Z,90.55
2022-10-30T05:38:20.405Z,90.57
2022-10-30T05:40:46.534Z,90.92
2022-10-30T05:43:09.174Z,90.44
2022-10-30T05:45:32.249Z,90.41
2022-10-30T05:48:15.047Z,90.19
2022-10-30T05:50:40.520Z,89.85
2022-10-30T05:53:12.668Z,89.87
2022-10-30T05:55:36.547Z,89.89
2022-10-30T05:58:09.910Z,89.46
2022-10-30T06:00:36.763Z,89.50
2022-10-30T06:03:07.967Z,89.12
2022-10-30T06:05:31.983Z,88.74
2022-10-30T06:07:56.507Z,88.70
2022-10-30T06:10:19.342Z,88.77
2022-10-30T06:13:06.562Z,88.60
2022-10-30T06:15:54.944Z,88.49
2022-10-30T06:18:17.945Z,88.51
2022-10-30T06:20:43.635Z,88.46
2022-10-30T06:23:21.649Z,88.25
2022-10-30T06:25:48.810Z,88.17
2022-10-30T06:28:19.290Z,87.44
2022-10-30T06:30:42.135Z,87.28
2022-10-30T06:33:05.881Z,87.21
2022-10-30T06:35:30.264Z,86.96
2022-10-30T06:37:54.282Z,86.92
2022-10-30T06:40:17.578Z,88.15
2022-10-30T06:42:59.196Z,88.11
2022-10-30T06:45:32.274Z,87.83
2022-10-30T06:47:54.928Z,87.28
2022-10-30T06:50:19.771Z,87.61
2022-10-30T06:52:42.643Z,87.64
2022-10-30T06:55:06.107Z,87.65
2022-10-30T06:57:53.747Z,87.99
2022-10-30T07:00:24.612Z,88.04
2022-10-30T07:03:08.917Z,88.04
2022-10-30T07:05:31.728Z,87.96
2022-10-30T07:07:56.962Z,87.99
2022-10-30T07:10:19.990Z,87.73
2022-10-30T07:13:13.770Z,88.11
2022-10-30T07:15:49.042Z,88.88
2022-10-30T07:18:24.617Z,89.03
2022-10-30T07:20:58.453Z,88.16
2022-10-30T07:23:21.995Z,87.50
2022-10-30T07:25:45.247Z,87.14
2022-10-30T07:28:19.545Z,87.05
2022-10-30T07:31:00.747Z,87.39
2022-10-30T07:33:43.564Z,87.01
2022-10-30T07:36:16.045Z,87.35
2022-10-30T07:38:58.164Z,87.46
2022-10-30T07:41:28.381Z,86.99
2022-10-30T07:44:10.773Z,86.40
2022-10-30T07:46:48.346Z,86.58
2022-10-30T07:49:40.074Z,85.73
2022-10-30T07:52:03.710Z,85.78
2022-10-30T07:54:26.256Z,85.66
2022-10-30T07:56:49.325Z,86.72
2022-10-30T07:59:30.786Z,86.72
2022-10-30T08:02:16.251Z,86.86
2022-10-30T08:05:10.073Z,86.77
2022-10-30T08:07:57.198Z,87.30
2022-10-30T08:10:21.471Z,87.16
2022-10-30T08:12:45.925Z,87.68
2022-10-30T08:15:08.841Z,87.08
2022-10-30T08:17:31.453Z,87.09
2022-10-30T08:19:54.061Z,86.26
2022-10-30T08:22:17.128Z,85.61
2022-10-30T08:24:44.305Z,85.48
2022-10-30T08:27:07.129Z,85.63
2022-10-30T08:29:30.084Z,86.48
2022-10-30T08:31:53.553Z,86.28
2022-10-30T08:34:36.215Z,87.00
2022-10-30T08:37:01.991Z,86.24
2022-10-30T08:39:24.693Z,85.68
2022-10-30T08:42:08.533Z,85.40
2022-10-30T08:44:36.952Z,84.97
2022-10-30T08:47:17.527Z,84.41
2022-10-30T08:49:41.386Z,84.52
2022-10-30T08:52:08.806Z,84.59
2022-10-30T08:54:31.283Z,84.42
2022-10-30T08:56:53.760Z,83.76
2022-10-30T08:59:20.225Z,83.56
2022-10-30T09:01:45.445Z,82.87
2022-10-30T09:04:31.013Z,83.21
2022-10-30T09:07:13.169Z,82.91
2022-10-30T09:09:54.220Z,82.68
2022-10-30T09:12:19.653Z,82.59
2022-10-30T09:14:43.134Z,81.97
2022-10-30T09:17:06.982Z,81.62
2022-10-30T09:19:31.704Z,81.62
2022-10-30T09:21:54.969Z,82.14
2022-10-30T09:24:17.777Z,82.50
2022-10-30T09:27:03.570Z,82.20
2022-10-30T09:29:33.268Z,81.06
2022-10-30T09:31:55.924Z,81.02
2022-10-30T09:34:20.837Z,80.62
2022-10-30T09:37:06.552Z,80.08
2022-10-30T09:39:32.956Z,80.49
2022-10-30T09:42:01.567Z,80.08
2022-10-30T09:45:15.129Z,79.78
2022-10-30T09:48:07.178Z,79.20
2022-10-30T09:50:46.885Z,78.73
2022-10-30T09:53:23.603Z,78.72
2022-10-30T09:56:29.293Z,78.84
2022-10-30T09:59:12.391Z,78.28
2022-10-30T10:01:54.150Z,78.15
2022-10-30T10:04:48.353Z,78.69
2022-10-30T10:07:38.956Z,79.60
2022-10-30T10:10:24.242Z,79.21
2022-10-30T10:13:00.098Z,78.82
2022-10-30T10:15:34.717Z,77.69
2022-10-30T10:18:01.517Z,77.25
2022-10-30T10:20:38.135Z,76.80
2022-10-30T10:23:09.886Z,76.85
2022-10-30T10:25:32.839Z,77.11
2022-10-30T10:28:17.169Z,76.54
2022-10-30T10:30:50.393Z,76.21
2022-10-30T10:33:12.898Z,76.32
2022-10-30T10:35:53.554Z,76.24
2022-10-30T10:38:47.125Z,76.72
2022-10-30T10:41:31.037Z,76.52
2022-10-30T10:44:12.319Z,77.26
2022-10-30T10:47:02.996Z,78.40
2022-10-30T10:49:46.442Z,79.31
2022-10-30T10:52:12.951Z,78.68
2022-10-30T10:54:43.691Z,78.29
2022-10-30T10:57:08.117Z,78.05
2022-10-30T10:59:38.589Z,77.86
2022-10-30T11:02:27.751Z,77.25
2022-10-30T11:04:53.989Z,77.03
2022-10-30T11:07:33.970Z,77.21
2022-10-30T11:09:57.968Z,75.98
2022-10-30T11:12:30.866Z,75.37
2022-10-30T11:14:58.652Z,75.42
2022-10-30T11:17:29.222Z,75.12
2022-10-30T11:19:58.259Z,75.42
2022-10-30T11:22:34.444Z,75.14
2022-10-30T11:25:18.909Z,75.05
2022-10-30T11:27:41.549Z,76.22
2022-10-30T11:30:06.093Z,75.79
2022-10-30T11:32:32.020Z,75.63
2022-10-30T11:35:16.109Z,75.72
2022-10-30T11:37:40.615Z,75.31
2022-10-30T11:40:16.692Z,75.44
2022-10-30T11:42:45.602Z,75.16
2022-10-30T11:45:27.383Z,74.70
2022-10-30T11:47:50.740Z,74.46
2022-10-30T11:50:24.164Z,74.58
2022-10-30T11:52:49.858Z,74.99
2022-10-30T11:55:33.962Z,74.57
2022-10-30T11:57:58.639Z,74.73
2022-10-30T12:00:22.771Z,74.82
2022-10-30T12:02:48.443Z,74.63
2022-10-30T12:05:25.967Z,74.69
2022-10-30T12:07:49.330Z,74.79
2022-10-30T12:10:25.315Z,74.63
2022-10-30T12:12:51.421Z,73.99
2022-10-30T12:15:13.921Z,74.01
2022-10-30T12:17:38.785Z,74.42
2022-10-30T12:20:02.812Z,74.13
2022-10-30T12:22:31.160Z,74.36
2022-10-30T12:24:53.683Z,74.30
2022-10-30T12:27:21.418Z,74.98
2022-10-30T12:30:09.946Z,75.03
2022-10-30T12:32:41.911Z,74.43
2022-10-30T12:35:15.069Z,75.54
2022-10-30T12:37:43.062Z,74.63
2022-10-30T12:40:13.811Z,74.87
2022-10-30T12:42:42.938Z,75.18
2022-10-30T12:45:21.579Z,74.76
2022-10-30T12:47:53.516Z,75.43
2022-10-30T12:50:25.766Z,75.66
2022-10-30T12:52:51.331Z,75.28
2022-10-30T12:55:26.240Z,75.12
2022-10-30T12:58:22.833Z,74.53
2022-10-30T13:01:09.921Z,74.81
2022-10-30T13:03:49.874Z,75.48
2022-10-30T13:06:14.994Z,75.49
2022-10-30T13:08:44.966Z,75.15
2022-10-30T13:11:14.749Z,76.28
2022-10-30T13:13:45.510Z,76.02
2022-10-30T13:16:16.176Z,76.43
2022-10-30T13:18:39.451Z,76.71
2022-10-30T13:21:02.961Z,76.94
2022-10-30T13:23:48.617Z,77.48
2022-10-30T13:26:30.923Z,77.37
2022-10-30T13:29:05.130Z,76.91
2022-10-30T13:31:57.128Z,76.92
2022-10-30T13:34:38.938Z,76.81
2022-10-30T13:37:13.439Z,76.84
2022-10-30T13:39:46.898Z,76.74
2022-10-30T13:42:12.490Z,76.74
2022-10-30T13:44:53.002Z,77.18
2022-10-30T13:47:41.922Z,76.74
2022-10-30T13:50:48.883Z,76.67
2022-10-30T13:53:17.230Z,77.93
2022-10-30T13:55:40.921Z,77.97
2022-10-30T13:58:11.116Z,77.39
2022-10-30T14:01:07.150Z,77.92
2022-10-30T14:03:53.947Z,78.07
2022-10-30T14:06:39.098Z,79.39
2022-10-30T14:09:28.881Z,78.88
2022-10-30T14:11:54.484Z,78.21
2022-10-30T14:14:31.139Z,78.68
2022-10-30T14:17:17.620Z,78.73
2022-10-30T14:20:08.740Z,79.01
2022-10-30T14:22:37.727Z,78.77
2022-10-30T14:25:02.148Z,78.55
2022-10-30T14:27:30.383Z,79.02
2022-10-30T14:29:53.309Z,79.38
2022-10-30T14:32:15.991Z,79.19
2022-10-30T14:34:50.920Z,79.85
2022-10-30T14:37:13.786Z,80.32
2022-10-30T14:39:42.003Z,80.22
2022-10-30T14:42:16.541Z,80.58
2022-10-30T14:44:57.591Z,80.60
2022-10-30T14:47:47.892Z,80.84
2022-10-30T14:50:20.140Z,80.86
2022-10-30T14:53:00.350Z,80.98
2022-10-30T14:55:35.066Z,81.32
2022-10-30T14:58:03.799Z,81.41
2022-10-30T15:00:47.344Z,81.43
2022-10-30T15:03:14.886Z,81.38
2022-10-30T15:05:45.675Z,82.31
2022-10-30T15:08:23.517Z,82.44
2022-10-30T15:11:12.825Z,82.85
2022-10-30T15:13:38.019Z,83.01
2022-10-30T15:16:05.211Z,82.83
2022-10-30T15:18:30.819Z,82.77
2022-10-30T15:20:54.872Z,83.21
2022-10-30T15:23:30.318Z,83.18
2022-10-30T15:25:55.373Z,82.95
2022-10-30T15:28:22.916Z,83.02
2022-10-30T15:31:19.888Z,83.05
2022-10-30T15:33:42.424Z,82.92
2022-10-30T15:36:05.636Z,83.98
2022-10-30T15:38:28.194Z,83.46
2022-10-30T15:40:56.095Z,83.39
2022-10-30T15:43:19.457Z,83.34
2022-10-30T15:45:47.033Z,83.46
2022-10-30T15:48:33.480Z,83.38
2022-10-30T15:51:06.758Z,83.54
2022-10-30T15:53:45.454Z,83.32
2022-10-30T15:56:19.921Z,83.47
2022-10-30T15:58:42.877Z,83.34
2022-10-30T16:01:05.636Z,83.52
2022-10-30T16:03:29.508Z,83.56
2022-10-30T16:06:02.974Z,83.43
2022-10-30T16:08:25.598Z,83.33
2022-10-30T16:10:49.287Z,82.89
2022-10-30T16:13:25.205Z,83.24
2022-10-30T16:15:48.498Z,83.02
2022-10-30T16:18:16.507Z,83.02
2022-10-30T16:20:41.507Z,82.99
2022-10-30T16:23:05.270Z,83.01
2022-10-30T16:25:28.093Z,82.88
2022-10-30T16:27:51.140Z,83.26
2022-10-30T16:30:15.371Z,83.34
2022-10-30T16:32:40.390Z,83.45
2022-10-30T16:35:04.866Z,83.41
2022-10-30T16:37:39.354Z,83.42
2022-10-30T16:40:13.423Z,83.66
2022-10-30T16:42:36.479Z,83.75
2022-10-30T16:45:19.164Z,83.81
2022-10-30T16:47:47.476Z,83.72
2022-10-30T16:50:14.670Z,83.57
2022-10-30T16:52:37.516Z,83.45
2022-10-30T16:55:03.860Z,83.49
2022-10-30T16:57:32.481Z,83.61
2022-10-30T16:59:55.891Z,83.72
2022-10-30T17:02:24.278Z,83.46
2022-10-30T17:04:52.485Z,83.55
2022-10-30T17:07:21.037Z,83.74
2022-10-30T17:09:46.173Z,83.70
2022-10-30T17:12:15.507Z,84.03
2022-10-30T17:14:45.035Z,83.89
2022-10-30T17:17:21.745Z,84.05
2022-10-30T17:19:47.862Z,83.71
2022-10-30T17:22:15.780Z,84.00
2022-10-30T17:24:39.124Z,83.86
2022-10-30T17:27:05.236Z,83.96
2022-10-30T17:29:37.085Z,83.94
2022-10-30T17:32:00.028Z,83.94
2022-10-30T17:34:23.891Z,84.66
2022-10-30T17:36:48.667Z,84.65
2022-10-30T17:39:13.046Z,84.74
2022-10-30T17:41:36.384Z,84.59
2022-10-30T17:43:59.500Z,84.25
2022-10-30T17:46:23.737Z,84.16
2022-10-30T17:48:46.387Z,84.51
2022-10-30T17:51:18.957Z,84.57
2022-10-30T17:53:42.416Z,84.61
2022-10-30T17:56:15.352Z,85.02
2022-10-30T17:58:38.099Z,84.97
2022-10-30T18:01:03.140Z,85.14
2022-10-30T18:03:26.218Z,84.90
2022-10-30T18:05:49.640Z,84.75
2022-10-30T18:08:12.462Z,84.90
2022-10-30T18:10:35.167Z,85.13
2022-10-30T18:12:59.111Z,85.06
2022-10-30T18:15:30.000Z,84.90
2022-10-30T18:17:53.076Z,85.19
2022-10-30T18:20:15.797Z,84.77
2022-10-30T18:22:38.646Z,84.87
2022-10-30T18:25:01.391Z,84.96
2022-10-30T18:27:24.114Z,84.99
2022-10-30T18:29:46.863Z,86.08
2022-10-30T18:32:10.352Z,85.82
2022-10-30T18:34:32.972Z,86.33
2022-10-30T18:36:55.718Z,85.56
2022-10-30T18:39:18.992Z,85.16
2022-10-30T18:41:43.744Z,84.95
2022-10-30T18:44:06.332Z,85.16
2022-10-30T18:46:31.138Z,85.48
2022-10-30T18:48:54.271Z,85.04
2022-10-30T18:51:22.771Z,85.13
2022-10-30T18:53:51.737Z,84.77
2022-10-30T18:56:16.205Z,84.72
2022-10-30T18:58:38.927Z,84.65
2022-10-30T19:01:17.617Z,84.97
2022-10-30T19:03:41.275Z,85.24
2022-10-30T19:06:04.071Z,84.84
2022-10-30T19:08:28.415Z,85.27
2022-10-30T19:10:51.092Z,85.35
2022-10-30T19:13:19.748Z,85.44
2022-10-30T19:15:45.410Z,85.68
2022-10-30T19:18:08.718Z,85.42
2022-10-30T19:20:50.989Z,85.00
2022-10-30T19:23:18.828Z,84.64
2022-10-30T19:25:44.303Z,85.08
2022-10-30T19:28:06.963Z,85.07
2022-10-30T19:30:30.046Z,85.18
2022-10-30T19:32:52.957Z,85.45
2022-10-30T19:35:18.070Z,85.49
2022-10-30T19:37:41.583Z,86.27
2022-10-30T19:40:18.325Z,86.01
2022-10-30T19:42:40.914Z,85.91
2022-10-30T19:45:03.926Z,85.83
2022-10-30T19:47:26.684Z,85.51
2022-10-30T19:49:49.408Z,85.65
2022-10-30T19:52:12.597Z,85.58
2022-10-30T19:54:35.390Z,85.03
2022-10-30T19:56:58.201Z,85.03
2022-10-30T19:59:21.364Z,85.12
2022-10-30T20:01:44.883Z,84.89
2022-10-30T20:04:07.747Z,85.32
2022-10-30T20:06:30.487Z,85.44
2022-10-30T20:08:54.586Z,85.22
2022-10-30T20:11:17.221Z,85.00
2022-10-30T20:13:39.865Z,86.09
2022-10-30T20:16:05.130Z,85.71
2022-10-30T20:18:31.504Z,85.69
2022-10-30T20:20:56.897Z,85.59
2022-10-30T20:23:20.395Z,85.11
2022-10-30T20:25:43.499Z,85.11
2022-10-30T20:28:32.211Z,86.25
2022-10-30T20:30:55.546Z,86.41
2022-10-30T20:33:19.803Z,85.89
2022-10-30T20:35:43.086Z,85.60
2022-10-30T20:38:06.375Z,85.65
2022-10-30T20:40:30.530Z,85.20
2022-10-30T20:42:56.021Z,85.74
2022-10-30T20:45:24.697Z,85.73
2022-10-30T20:47:47.743Z,85.72
2022-10-30T20:50:11.651Z,85.53
2022-10-30T20:52:34.350Z,85.39
2022-10-30T20:54:57.040Z,85.33
2022-10-30T20:57:19.868Z,85.34
2022-10-30T20:59:42.782Z,85.30
2022-10-30T21:02:05.454Z,85.28
2022-10-30T21:04:28.161Z,85.76
2022-10-30T21:06:50.909Z,85.60
2022-10-30T21:09:13.528Z,85.78
2022-10-30T21:11:36.189Z,85.73
2022-10-30T21:13:58.973Z,86.08
2022-10-30T21:16:21.531Z,86.17
2022-10-30T21:18:44.108Z,86.16
2022-10-30T21:21:11.517Z,86.49
2022-10-30T21:23:34.694Z,86.20
2022-10-30T21:26:05.628Z,86.04
2022-10-30T21:28:28.417Z,86.14
2022-10-30T21:30:51.123Z,86.03
2022-10-30T21:33:13.916Z,85.97
2022-10-30T21:35:36.379Z,86.40
2022-10-30T21:37:59.035Z,86.17
2022-10-30T21:40:21.577Z,86.56
2022-10-30T21:42:47.757Z,86.74
2022-10-30T21:45:10.374Z,87.14
2022-10-30T21:47:33.015Z,86.85
2022-10-30T21:49:55.730Z,87.07
2022-10-30T21:52:18.196Z,86.74
2022-10-30T21:54:40.689Z,86.75
2022-10-30T21:57:03.816Z,87.14
2022-10-30T21:59:26.383Z,87.24
2022-10-30T22:01:48.942Z,87.26
2022-10-30T22:04:12.135Z,87.12
2022-10-30T22:06:38.131Z,87.11
2022-10-30T22:09:00.718Z,86.74
2022-10-30T22:11:26.286Z,86.97
2022-10-30T22:13:56.654Z,86.67
2022-10-30T22:16:24.216Z,87.01
2022-10-30T22:18:51.413Z,86.78
2022-10-30T22:21:14.459Z,86.88
2022-10-30T22:23:38.524Z,87.14
2022-10-30T22:26:03.642Z,87.42
2022-10-30T22:28:27.798Z,87.54
2022-10-30T22:30:50.461Z,87.25
2022-10-30T22:33:13.145Z,87.77
2022-10-30T22:35:38.029Z,87.69
2022-10-30T22:38:00.620Z,87.95
2022-10-30T22:40:23.125Z,88.94
2022-10-30T22:42:45.870Z,89.03
2022-10-30T22:45:09.043Z,88.49
2022-10-30T22:47:31.584Z,88.45
2022-10-30T22:49:54.138Z,88.60
2022-10-30T22:52:16.702Z,88.94
2022-10-30T22:54:39.210Z,88.65
2022-10-30T22:57:01.710Z,88.86
2022-10-30T22:59:24.358Z,89.24
2022-10-30T23:01:46.897Z,89.04
2022-10-30T23:04:11.320Z,88.90
2022-10-30T23:06:35.334Z,88.77
2022-10-30T23:09:00.248Z,88.69
2022-10-30T23:11:23.206Z,88.96
2022-10-30T23:13:46.142Z,89.79
2022-10-30T23:16:13.468Z,89.58
2022-10-30T23:18:36.273Z,90.43
2022-10-30T23:21:04.736Z,90.16
2022-10-30T23:23:28.158Z,89.93
2022-10-30T23:25:50.707Z,89.88
2022-10-30T23:28:13.557Z,89.95
2022-10-30T23:30:36.082Z,90.11
2022-10-30T23:32:58.945Z,89.91
2022-10-30T23:35:21.742Z,89.69
2022-10-30T23:37:44.310Z,89.45
2022-10-30T23:40:07.502Z,89.69
2022-10-30T23:42:30.118Z,89.28
2022-10-30T23:44:52.913Z,88.98
2022-10-30T23:47:15.534Z,89.12
2022-10-30T23:49:38.079Z,88.96
2022-10-30T23:52:00.737Z,88.60
2022-10-30T23:54:23.277Z,88.74
2022-10-30T23:56:45.880Z,88.98
2022-10-30T23:59:09.587Z,88.94
